Time;durP1;ratioP1;P1;durP2;ratioP2;P2;SDS_P1;SDS_P2;PMS_P1;PMS_P2;Temp;Humidity;BMP_temperature;BMP_pressure;BME280_temperature;BME280_humidity;BME280_pressure;Samples;Min_cycle;Max_cycle;Signal;HPM_P1;HPM_P2
2023/03/09 04:28:28;;;;;;;13.07;7.97;;;;;;;7.42;76.18;96141.94;3287491;28;20051;-74
2023/03/09 04:30:54;;;;;;;12.10;7.78;;;;;;;7.41;76.32;96132.16;4970442;28;20035;-74
2023/03/09 04:33:20;;;;;;;12.65;8.00;;;;;;;7.43;76.16;96127.16;4980467;28;20110;-75
2023/03/09 04:35:45;;;;;;;14.50;8.25;;;;;;;7.43;76.64;96136.16;4989262;28;20023;-74
2023/03/09 04:38:11;;;;;;;13.13;7.75;;;;;;;7.43;76.29;96129.88;4983949;28;20027;-74
2023/03/09 04:40:37;;;;;;;10.93;7.65;;;;;;;7.43;76.21;96136.16;4969903;28;20026;-76
2023/03/09 04:43:03;;;;;;;11.90;7.18;;;;;;;7.45;76.92;96138.53;4969819;28;20034;-74
2023/03/09 04:45:29;;;;;;;11.50;7.85;;;;;;;7.42;76.36;96120.94;4981683;28;20450;-74
2023/03/09 04:47:54;;;;;;;13.80;8.73;;;;;;;7.45;76.09;96133.09;4984761;28;20018;-74
2023/03/09 04:50:20;;;;;;;13.95;8.80;;;;;;;7.45;76.25;96133.91;4989649;28;20045;-74
2023/03/09 04:52:45;;;;;;;13.40;7.78;;;;;;;7.47;76.95;96130.81;4989271;28;20089;-74
2023/03/09 04:55:11;;;;;;;11.77;7.65;;;;;;;7.48;76.41;96120.72;4985240;28;20022;-74
2023/03/09 04:57:36;;;;;;;12.10;7.85;;;;;;;7.50;76.36;96123.91;4973801;28;20065;-75
2023/03/09 05:00:07;;;;;;;11.48;7.75;;;;;;;7.51;76.92;96125.50;4974772;28;20097;-75
2023/03/09 05:02:33;;;;;;;10.73;6.85;;;;;;;7.53;76.70;96117.81;4974372;28;20478;-74
2023/03/09 05:04:58;;;;;;;11.30;7.20;;;;;;;7.53;76.46;96120.53;4989791;28;20042;-75
2023/03/09 05:07:24;;;;;;;10.38;7.20;;;;;;;7.54;77.44;96111.22;4989248;28;20015;-75
2023/03/09 05:09:49;;;;;;;12.35;8.05;;;;;;;7.51;76.42;96109.16;4974440;28;20438;-75
2023/03/09 05:12:14;;;;;;;13.45;7.93;;;;;;;7.53;76.53;96110.41;4974350;28;20030;-74
2023/03/09 05:14:40;;;;;;;13.20;7.82;;;;;;;7.53;76.55;96106.88;4974622;28;20033;-75
2023/03/09 05:17:07;;;;;;;13.85;7.80;;;;;;;7.52;76.58;96111.53;4974482;28;20027;-74
2023/03/09 05:19:35;;;;;;;14.32;8.15;;;;;;;7.54;76.95;96103.03;4974562;28;20487;-75
2023/03/09 05:22:02;;;;;;;12.75;8.25;;;;;;;7.52;76.82;96088.94;4974293;28;20078;-75
2023/03/09 05:24:28;;;;;;;12.63;8.32;;;;;;;7.51;76.68;96087.34;4974375;28;20084;-74
2023/03/09 05:26:53;;;;;;;13.07;8.43;;;;;;;7.51;76.96;96090.84;4974267;28;20027;-75
2023/03/09 05:29:18;;;;;;;12.55;8.68;;;;;;;7.51;76.62;96088.13;4973998;28;20055;-74
2023/03/09 05:31:44;;;;;;;12.30;9.18;;;;;;;7.49;76.49;96095.84;4974173;28;20122;-74
2023/03/09 05:34:09;;;;;;;15.35;10.43;;;;;;;7.48;76.80;96090.72;4974387;28;20030;-74
2023/03/09 05:36:34;;;;;;;16.02;10.20;;;;;;;7.48;76.72;96088.00;4974227;28;20615;-75
2023/03/09 05:39:00;;;;;;;15.63;9.57;;;;;;;7.48;76.72;96077.09;4974141;28;20431;-75
2023/03/09 05:41:25;;;;;;;15.98;10.02;;;;;;;7.49;76.78;96073.22;4980885;28;20165;-76
2023/03/09 05:43:50;;;;;;;17.55;10.52;;;;;;;7.46;76.48;96074.69;4988434;28;20126;-75
2023/03/09 05:46:17;;;;;;;14.23;9.10;;;;;;;7.48;76.85;96088.78;4973109;28;20466;-76
2023/03/09 05:48:45;;;;;;;13.93;9.13;;;;;;;7.50;76.55;96089.25;4972247;28;20054;-76
2023/03/09 05:51:11;;;;;;;15.70;9.25;;;;;;;7.51;76.95;96082.66;4972844;28;20031;-75
2023/03/09 05:53:36;;;;;;;14.52;9.65;;;;;;;7.53;76.69;96093.25;4973508;28;20025;-76
2023/03/09 05:56:03;;;;;;;15.02;10.48;;;;;;;7.53;76.92;96090.53;4977196;28;20050;-75
2023/03/09 05:58:29;;;;;;;15.20;10.23;;;;;;;7.54;76.44;96092.13;4991922;28;20027;-76
2023/03/09 06:00:56;;;;;;;17.95;11.90;;;;;;;7.55;76.64;96083.59;4992956;28;20033;-76
2023/03/09 06:03:21;;;;;;;13.73;9.32;;;;;;;7.58;76.56;96084.84;4979626;28;20039;-76
2023/03/09 06:05:47;;;;;;;16.17;10.68;;;;;;;7.59;76.49;96073.59;4986853;28;20027;-76
2023/03/09 06:08:13;;;;;;;16.10;12.65;;;;;;;7.63;77.11;96064.75;4972707;28;20035;-76
2023/03/09 06:10:39;;;;;;;18.15;12.25;;;;;;;7.64;76.41;96058.94;4972982;28;20030;-76
2023/03/09 06:13:04;;;;;;;15.63;11.32;;;;;;;7.65;76.98;96070.69;4972524;28;20050;-75
2023/03/09 06:15:30;;;;;;;14.70;8.73;;;;;;;7.66;76.80;96064.09;4972936;28;20149;-76
2023/03/09 06:17:55;;;;;;;15.65;11.75;;;;;;;7.67;76.59;96065.69;4972756;28;20027;-76
2023/03/09 06:20:21;;;;;;;18.02;13.25;;;;;;;7.68;76.90;96065.34;4991241;28;20039;-76
2023/03/09 06:22:47;;;;;;;18.83;14.15;;;;;;;7.69;76.37;96057.97;4992308;28;20033;-75
2023/03/09 06:25:13;;;;;;;19.02;13.35;;;;;;;7.71;77.02;96059.19;4993089;28;20022;-76
2023/03/09 06:27:38;;;;;;;21.58;14.27;;;;;;;7.73;76.80;96065.13;4992774;28;20030;-75
2023/03/09 06:30:05;;;;;;;18.80;14.07;;;;;;;7.74;76.53;96065.94;4992404;28;20050;-76
2023/03/09 06:32:33;;;;;;;15.95;11.90;;;;;;;7.75;76.09;96059.31;4991202;28;20026;-75
2023/03/09 06:34:58;;;;;;;16.88;11.75;;;;;;;7.77;76.68;96059.00;4984985;28;20027;-75
2023/03/09 06:37:24;;;;;;;20.55;14.07;;;;;;;7.78;76.48;96058.66;4973271;28;20049;-75
2023/03/09 06:39:49;;;;;;;14.82;11.60;;;;;;;7.80;76.30;96061.84;4991352;28;20053;-75
2023/03/09 06:42:14;;;;;;;15.15;10.35;;;;;;;7.83;76.37;96060.38;4992485;28;20023;-75
2023/03/09 06:44:40;;;;;;;17.27;11.20;;;;;;;7.83;76.83;96054.91;4990727;28;20019;-74
2023/03/09 06:47:05;;;;;;;17.83;12.40;;;;;;;7.83;76.37;96061.16;4992582;28;20386;-76
2023/03/09 06:49:31;;;;;;;14.88;10.32;;;;;;;7.84;76.37;96056.53;4992510;28;20122;-75
2023/03/09 06:51:57;;;;;;;13.55;10.00;;;;;;;7.86;76.51;96059.72;4974777;28;20031;-75
2023/03/09 06:54:22;;;;;;;17.67;10.30;;;;;;;7.86;76.74;96056.97;4991690;28;20030;-75
2023/03/09 06:56:48;;;;;;;12.68;8.73;;;;;;;7.87;76.10;96042.97;4992064;28;20037;-75
2023/03/09 06:59:14;;;;;;;14.35;8.23;;;;;;;7.89;76.28;96032.53;4992597;28;20041;-75
2023/03/09 07:01:40;;;;;;;12.43;8.15;;;;;;;7.93;76.41;96032.66;4979235;28;20089;-75
2023/03/09 07:04:07;;;;;;;12.70;9.63;;;;;;;7.97;76.50;96027.31;4972897;28;20035;-75
2023/03/09 07:06:32;;;;;;;14.82;8.75;;;;;;;7.99;76.68;96028.56;4988304;28;20026;-75
2023/03/09 07:08:57;;;;;;;11.65;7.40;;;;;;;8.01;76.38;96020.03;4992559;28;20045;-75
2023/03/09 07:11:23;;;;;;;12.13;7.80;;;;;;;8.03;76.36;96024.00;4991474;28;20491;-74
2023/03/09 07:13:49;;;;;;;12.27;8.00;;;;;;;8.05;76.47;96023.69;4992173;28;20053;-75
2023/03/09 07:16:14;;;;;;;13.48;8.63;;;;;;;8.07;77.27;96031.53;4985620;28;20026;-75
2023/03/09 07:18:40;;;;;;;13.75;7.70;;;;;;;8.07;76.34;96026.06;4972391;28;20038;-75
2023/03/09 07:21:06;;;;;;;12.93;8.27;;;;;;;8.07;76.50;96037.78;4962810;28;20118;-75
2023/03/09 07:23:50;;;;;;;12.30;8.50;;;;;;;8.08;76.30;96047.59;5686725;23;20037;-74
2023/03/09 07:26:15;;;;;;;15.93;9.38;;;;;;;8.08;76.26;96044.03;4959966;28;20066;-78
2023/03/09 07:28:41;;;;;;;16.10;11.45;;;;;;;8.10;76.49;96055.41;4972818;28;20077;-77
2023/03/09 07:31:12;;;;;;;19.90;12.90;;;;;;;8.11;75.93;96051.56;4969670;28;20098;-83
2023/03/09 07:33:37;;;;;;;17.58;11.45;;;;;;;8.13;76.74;96054.75;4973289;28;20056;-82
2023/03/09 07:36:07;;;;;;;18.80;11.90;;;;;;;8.16;76.54;96062.25;4970573;28;20038;-81
2023/03/09 07:38:33;;;;;;;17.35;11.18;;;;;;;8.20;76.58;96063.19;4970245;28;20030;-82
2023/03/09 07:41:00;;;;;;;18.95;10.27;;;;;;;8.21;76.57;96064.78;4974133;28;20036;-84
2023/03/09 07:43:26;;;;;;;20.00;12.07;;;;;;;8.24;76.27;96066.00;4970980;28;20048;-79
2023/03/09 07:45:51;;;;;;;16.83;10.70;;;;;;;8.25;76.56;96060.22;4977091;28;20433;-82
2023/03/09 07:48:16;;;;;;;19.17;11.98;;;;;;;8.27;76.57;96063.41;4981565;28;20031;-82
2023/03/09 07:50:42;;;;;;;18.33;12.35;;;;;;;8.28;76.38;96065.00;4980976;28;20034;-83
2023/03/09 07:53:09;;;;;;;17.02;11.75;;;;;;;8.30;76.43;96061.94;4969837;28;20030;-82
2023/03/09 07:55:34;;;;;;;20.70;13.38;;;;;;;8.30;76.98;96061.94;4969693;28;20395;-84
2023/03/09 07:58:01;;;;;;;19.15;11.00;;;;;;;8.31;76.57;96055.31;4975376;28;20034;-79
2023/03/09 08:00:28;;;;;;;17.75;11.98;;;;;;;8.32;77.01;96059.66;4975587;28;20121;-83
2023/03/09 08:02:54;;;;;;;17.45;10.27;;;;;;;8.32;77.16;96054.19;4969792;28;20118;-82
2023/03/09 08:05:20;;;;;;;16.73;8.77;;;;;;;8.32;77.56;96057.72;4968790;28;20500;-82
2023/03/09 08:07:47;;;;;;;16.13;10.45;;;;;;;8.35;76.99;96057.03;4970955;28;20041;-81
2023/03/09 08:10:14;;;;;;;20.67;12.70;;;;;;;8.35;78.07;96065.22;4983235;28;20544;-78
2023/03/09 08:12:40;;;;;;;16.48;9.32;;;;;;;8.37;77.87;96067.63;4982011;28;20570;-79
2023/03/09 08:15:06;;;;;;;16.73;9.23;;;;;;;8.38;78.05;96065.69;4969939;28;20106;-76
2023/03/09 08:17:34;;;;;;;15.77;9.63;;;;;;;8.39;77.51;96061.81;4969226;28;20109;-77
2023/03/09 08:19:59;;;;;;;19.70;13.85;;;;;;;8.41;77.92;96068.53;4969892;28;20147;-76
2023/03/09 08:22:26;;;;;;;13.50;9.15;;;;;;;8.50;77.71;96071.19;4966825;28;20488;-78
2023/03/09 08:24:52;;;;;;;17.10;10.65;;;;;;;8.55;77.85;96064.72;4968549;28;20043;-77
2023/03/09 08:27:17;;;;;;;21.50;13.82;;;;;;;8.57;77.56;96065.94;4980179;28;20038;-76
2023/03/09 08:29:43;;;;;;;22.05;14.65;;;;;;;8.61;77.85;96066.84;4969429;28;20030;-76
2023/03/09 08:32:09;;;;;;;17.90;11.15;;;;;;;8.64;78.39;96068.91;4972733;28;20034;-83
2023/03/09 08:34:35;;;;;;;13.50;10.57;;;;;;;8.68;78.13;96062.75;4974046;28;20022;-80
2023/03/09 08:37:01;;;;;;;15.93;11.40;;;;;;;8.73;77.64;96059.81;4972988;28;20078;-81
2023/03/09 08:39:26;;;;;;;20.83;13.68;;;;;;;8.79;78.27;96069.34;4973175;28;20122;-82
2023/03/09 08:41:51;;;;;;;19.08;13.07;;;;;;;8.82;78.17;96065.13;4972726;28;20037;-78
2023/03/09 08:44:17;;;;;;;10.40;7.07;;;;;;;8.84;78.17;96060.13;4976817;28;20106;-81
2023/03/09 08:46:42;;;;;;;14.20;8.90;;;;;;;8.83;77.60;96072.97;4971359;28;20114;-81
2023/03/09 08:49:08;;;;;;;12.60;9.30;;;;;;;8.82;78.28;96073.34;4973236;28;20030;-82
2023/03/09 08:51:34;;;;;;;14.23;10.57;;;;;;;8.79;78.39;96074.81;4973012;28;20042;-84
2023/03/09 08:53:59;;;;;;;10.73;8.65;;;;;;;8.77;78.44;96086.09;4979613;28;20430;-81
2023/03/09 08:56:29;;;;;;;11.95;8.73;;;;;;;8.73;78.83;96081.66;4972513;28;20085;-80
2023/03/09 08:58:54;;;;;;;13.95;9.75;;;;;;;8.72;78.27;96078.13;4985599;28;20030;-78
2023/03/09 09:01:20;;;;;;;12.98;7.78;;;;;;;8.73;77.89;96084.41;4974571;28;20489;-76
2023/03/09 09:03:45;;;;;;;15.95;9.65;;;;;;;8.74;78.49;96091.47;4972942;28;20026;-77
2023/03/09 09:06:13;;;;;;;15.32;8.80;;;;;;;8.75;78.75;96087.59;4972103;28;20041;-85
2023/03/09 09:08:40;;;;;;;12.93;7.80;;;;;;;8.75;79.10;96093.84;4974284;28;20466;-80
2023/03/09 09:11:14;;;;;;;15.32;10.07;;;;;;;8.77;78.79;96094.28;4977704;28;20074;-79
2023/03/09 09:13:40;;;;;;;15.65;8.88;;;;;;;8.79;78.95;96094.75;4972467;28;20030;-82
2023/03/09 09:16:07;;;;;;;10.68;6.68;;;;;;;8.83;78.87;96103.03;4973382;28;20045;-78
2023/03/09 09:18:34;;;;;;;10.27;6.25;;;;;;;8.87;79.62;96103.97;4973098;28;20026;-78
2023/03/09 09:21:03;;;;;;;12.00;7.00;;;;;;;8.90;79.19;96103.28;4974229;28;20196;-79
2023/03/09 09:23:28;;;;;;;10.57;6.95;;;;;;;8.96;78.94;96113.97;4972911;28;20035;-78
2023/03/09 09:25:56;;;;;;;12.55;7.07;;;;;;;9.00;78.74;96110.19;4973645;28;20062;-82
2023/03/09 09:28:23;;;;;;;11.40;7.25;;;;;;;9.03;79.05;96114.97;4973123;28;20026;-80
2023/03/09 09:30:56;;;;;;;10.88;6.88;;;;;;;9.06;79.56;96118.97;4974157;28;20034;-77
2023/03/09 09:33:22;;;;;;;10.20;6.95;;;;;;;9.09;78.80;96121.81;4971047;28;20057;-80
2023/03/09 09:35:58;;;;;;;11.18;7.22;;;;;;;9.16;79.53;96114.97;4973889;28;20061;-78
2023/03/09 09:38:25;;;;;;;14.23;8.27;;;;;;;9.22;78.74;96130.00;4978316;28;20115;-78
2023/03/09 09:40:52;;;;;;;11.10;7.43;;;;;;;9.29;79.03;96126.69;4972370;28;20065;-79
2023/03/09 09:43:18;;;;;;;11.45;7.35;;;;;;;9.35;79.33;96128.84;4971238;28;20141;-86
2023/03/09 09:45:45;;;;;;;11.15;7.78;;;;;;;9.44;79.02;96134.19;4972206;28;20027;-84
2023/03/09 09:48:17;;;;;;;12.40;7.57;;;;;;;9.54;79.05;96141.09;4972614;28;20019;-84
2023/03/09 09:51:07;;;;;;;11.82;7.65;;;;;;;9.63;78.79;96143.69;4971489;28;20081;-84
2023/03/09 09:54:00;;;;;;;11.73;7.85;;;;;;;9.68;78.60;96141.53;4970959;28;20105;-84
2023/03/09 09:56:43;;;;;;;12.05;7.70;;;;;;;9.76;78.05;96156.19;4982219;28;20704;-81
2023/03/09 09:59:18;;;;;;;10.13;6.60;;;;;;;9.85;78.67;96158.78;4972195;28;20058;-83
2023/03/09 10:01:48;;;;;;;11.63;6.68;;;;;;;9.92;78.36;96172.69;4973512;28;20081;-84
2023/03/09 10:04:17;;;;;;;;;;;;;;;10.01;78.46;96167.03;4972366;28;20058;-80
2023/03/09 10:06:46;;;;;;;9.57;6.30;;;;;;;10.08;78.52;96174.69;4971761;28;19910;-83
2023/03/09 10:09:25;;;;;;;16.80;10.95;;;;;;;10.06;78.44;96175.00;4971711;28;20304;-79
2023/03/09 10:11:56;;;;;;;19.15;10.27;;;;;;;10.00;78.28;96190.09;4971948;28;20121;-78
2023/03/09 10:14:49;;;;;;;35.50;14.90;;;;;;;9.95;77.88;96201.31;4970043;28;20030;-78
2023/03/09 10:17:26;;;;;;;31.80;12.93;;;;;;;9.88;77.90;96195.63;4970614;28;20114;-77
2023/03/09 10:19:52;;;;;;;7.82;4.85;;;;;;;9.79;78.01;96212.19;4972032;28;20031;-75
2023/03/09 10:22:25;;;;;;;17.80;8.90;;;;;;;9.68;77.93;96225.56;4971518;28;20033;-75
2023/03/09 10:24:52;;;;;;;11.20;6.03;;;;;;;9.60;77.81;96221.81;4970375;28;20057;-76
2023/03/09 10:27:34;;;;;;;11.82;7.07;;;;;;;9.55;78.41;96234.94;4972729;28;20031;-75
2023/03/09 10:30:24;;;;;;;6.70;4.38;;;;;;;9.47;78.52;96234.72;4972143;28;20033;-74
2023/03/09 10:32:53;;;;;;;;;;;;;;;9.40;78.66;96259.13;4973296;28;20026;-77
2023/03/09 10:35:27;;;;;;;10.32;5.28;;;;;;;9.30;78.39;96246.72;4988131;28;20322;-77
2023/03/09 10:37:53;;;;;;;6.28;4.25;;;;;;;9.24;78.33;96269.94;4970733;28;20059;-77
2023/03/09 10:40:19;;;;;;;7.95;4.45;;;;;;;9.15;78.24;96275.53;4972120;28;20027;-76
2023/03/09 10:42:44;;;;;;;7.72;4.07;;;;;;;9.11;78.35;96280.09;4974348;28;20038;-76
2023/03/09 10:45:16;;;;;;;6.47;4.45;;;;;;;9.07;78.05;96274.50;4970119;28;20501;-76
2023/03/09 10:47:47;;;;;;;6.50;3.63;;;;;;;9.04;77.90;96286.09;4969721;28;20493;-77
2023/03/09 10:50:15;;;;;;;6.13;4.07;;;;;;;9.03;78.36;96289.19;4983603;28;20034;-76
2023/03/09 10:52:40;;;;;;;5.65;3.50;;;;;;;9.04;78.80;96299.00;4984609;28;20491;-76
2023/03/09 10:55:36;;;;;;;4.47;3.30;;;;;;;9.03;78.54;96300.91;4990457;28;20137;-76
2023/03/09 10:58:13;;;;;;;5.03;3.33;;;;;;;9.01;78.64;96305.91;4981136;28;20077;-76
2023/03/09 11:00:56;;;;;;;9.25;4.65;;;;;;;9.03;78.21;96306.38;4991442;28;20081;-76
2023/03/09 11:03:31;;;;;;;8.88;4.90;;;;;;;9.06;78.88;96318.59;4980437;28;20061;-76
2023/03/09 11:06:33;;;;;;;8.02;4.15;;;;;;;9.09;78.30;96321.44;4982984;28;20052;-76
2023/03/09 11:09:12;;;;;;;6.13;4.28;;;;;;;9.21;78.89;96320.66;4950826;28;20043;-77
2023/03/09 11:11:39;;;;;;;6.55;3.80;;;;;;;9.32;78.91;96323.75;4973424;28;20031;-76
2023/03/09 11:14:16;;;;;;;8.07;4.10;;;;;;;9.40;78.88;96330.25;4973348;28;20045;-77
2023/03/09 11:16:52;;;;;;;8.32;4.45;;;;;;;9.46;78.48;96331.63;4992587;28;20335;-76
2023/03/09 11:19:19;;;;;;;7.18;4.35;;;;;;;9.58;78.20;96346.47;4991274;28;20033;-76
2023/03/09 11:21:56;;;;;;;7.18;4.47;;;;;;;9.66;78.20;96370.16;4973142;28;20035;-76
2023/03/09 11:24:44;;;;;;;6.95;4.00;;;;;;;9.64;78.64;96372.44;4972822;28;20537;-77
2023/03/09 11:27:26;;;;;;;5.47;3.75;;;;;;;9.59;78.34;96378.13;4973231;28;20026;-76
2023/03/09 11:30:16;;;;;;;6.18;3.70;;;;;;;9.53;78.71;96385.78;4989144;28;20038;-77
2023/03/09 11:32:42;;;;;;;4.40;2.63;;;;;;;9.53;77.54;96385.78;4986935;28;20076;-78
2023/03/09 11:35:18;;;;;;;5.00;2.80;;;;;;;9.48;77.73;96399.69;4988996;28;20530;-77
2023/03/09 11:37:49;;;;;;;4.57;2.60;;;;;;;9.45;77.34;96406.66;4972575;28;20038;-78
2023/03/09 11:40:20;;;;;;;5.50;2.97;;;;;;;9.46;77.28;96408.25;4972771;28;20478;-78
2023/03/09 11:42:56;;;;;;;3.85;2.45;;;;;;;9.48;77.78;96425.13;4972267;28;20030;-77
2023/03/09 11:45:24;;;;;;;3.80;2.22;;;;;;;9.49;77.62;96423.97;4972339;28;20054;-78
2023/03/09 11:48:07;;;;;;;3.33;2.03;;;;;;;9.48;77.19;96427.84;4972296;28;20030;-78
2023/03/09 11:50:56;;;;;;;4.85;2.70;;;;;;;9.44;77.61;96439.78;4972334;28;20031;-77
2023/03/09 11:53:37;;;;;;;4.75;2.65;;;;;;;9.40;77.09;96434.22;4972433;28;20027;-78
2023/03/09 11:56:27;;;;;;;3.63;2.25;;;;;;;9.42;77.30;96442.06;4971930;28;20041;-77
2023/03/09 11:59:11;;;;;;;3.78;2.08;;;;;;;9.47;76.62;96442.69;4986661;28;20026;-78
2023/03/09 12:01:44;;;;;;;3.50;1.90;;;;;;;9.52;77.07;96456.16;4991510;28;20030;-78
2023/03/09 12:04:14;;;;;;;3.92;2.20;;;;;;;9.55;77.07;96460.13;4978751;28;20101;-78
2023/03/09 12:07:01;;;;;;;4.18;2.17;;;;;;;9.57;76.52;96465.28;4970751;28;20042;-78
2023/03/09 12:10:04;;;;;;;4.45;2.30;;;;;;;9.56;76.98;96466.41;4972320;28;20488;-78
2023/03/09 12:12:51;;;;;;;5.65;2.63;;;;;;;9.57;76.85;96468.00;4971908;28;20035;-78
2023/03/09 12:15:47;;;;;;;2.42;1.90;;;;;;;9.58;76.43;96480.56;4984763;28;20027;-78
2023/03/09 12:18:21;;;;;;;4.45;2.60;;;;;;;9.57;76.38;96482.47;4969639;28;20093;-78
2023/03/09 12:20:55;;;;;;;18.45;5.30;;;;;;;9.58;76.71;96489.56;4972166;28;20035;-78
2023/03/09 12:23:36;;;;;;;9.23;4.22;;;;;;;9.67;76.65;96503.16;4971107;28;20034;-77
2023/03/09 12:26:15;;;;;;;22.67;8.10;;;;;;;9.74;76.85;96503.41;4971619;28;20435;-78
2023/03/09 12:28:40;;;;;;;21.10;7.90;;;;;;;9.83;76.30;96509.56;4972096;28;20114;-78
2023/03/09 12:31:28;;;;;;;15.02;6.95;;;;;;;9.85;76.12;96509.22;4983448;28;20105;-78
2023/03/09 12:34:10;;;;;;;12.18;4.85;;;;;;;9.97;76.25;96513.94;4971942;28;20054;-77
2023/03/09 12:36:40;;;;;;;14.52;5.63;;;;;;;10.09;75.42;96519.41;4971879;28;20347;-78
2023/03/09 12:39:28;;;;;;;10.90;5.32;;;;;;;10.18;75.29;96527.56;4972122;28;20031;-78
2023/03/09 12:42:15;;;;;;;8.40;4.97;;;;;;;10.26;75.74;96529.34;4971737;28;20029;-78
2023/03/09 12:44:43;;;;;;;30.63;15.43;;;;;;;10.31;74.82;96531.09;4971726;28;20039;-77
2023/03/09 12:47:24;;;;;;;13.00;7.75;;;;;;;10.30;74.10;96539.63;4971629;28;20062;-78
2023/03/09 12:49:56;;;;;;;6.40;3.97;;;;;;;10.27;74.82;96536.44;4971714;28;20038;-78
2023/03/09 12:52:55;;;;;;;7.07;4.40;;;;;;;10.25;74.22;96551.63;4975282;28;20439;-78
2023/03/09 12:55:43;;;;;;;8.40;4.70;;;;;;;10.29;74.38;96555.28;4971803;28;20479;-78
2023/03/09 12:58:20;;;;;;;6.97;4.10;;;;;;;10.32;73.23;96562.03;4971426;28;20035;-78
2023/03/09 13:01:08;;;;;;;5.60;4.28;;;;;;;10.30;72.55;96572.50;4971934;28;20031;-78
2023/03/09 13:03:42;;;;;;;6.53;4.60;;;;;;;10.27;73.34;96583.00;4971092;28;20088;-78
2023/03/09 13:06:38;;;;;;;8.70;6.28;;;;;;;10.29;72.36;96579.94;4971477;28;20046;-78
2023/03/09 13:09:19;;;;;;;8.77;6.13;;;;;;;10.24;72.22;96591.13;4971736;28;20501;-78
2023/03/09 13:11:56;;;;;;;7.88;4.32;;;;;;;10.19;72.83;96599.56;4971574;28;20034;-77
2023/03/09 13:14:25;;;;;;;9.45;5.80;;;;;;;10.19;71.74;96610.53;4973157;28;20066;-78
2023/03/09 13:16:57;;;;;;;8.35;5.53;;;;;;;10.18;71.13;96611.66;4992618;28;20062;-78
2023/03/09 13:19:25;;;;;;;6.00;4.40;;;;;;;10.16;70.89;96612.00;4993020;28;20018;-77
2023/03/09 13:21:56;;;;;;;6.78;4.00;;;;;;;10.17;71.15;96618.28;4975073;28;20031;-78
2023/03/09 13:24:38;;;;;;;5.25;3.45;;;;;;;10.20;71.20;96623.06;4987531;28;20080;-77
2023/03/09 13:27:09;;;;;;;4.65;3.33;;;;;;;10.24;70.30;96624.78;4989276;28;20509;-77
2023/03/09 13:30:24;;;;;;;8.02;4.35;;;;;;;10.28;69.68;96625.72;4994422;28;20034;-77
2023/03/09 13:32:55;;;;;;;5.40;3.70;;;;;;;10.45;69.35;96634.09;4982313;28;20048;-78
2023/03/09 13:35:24;;;;;;;4.93;3.38;;;;;;;10.56;69.49;96635.28;4992758;28;20554;-77
2023/03/09 13:37:53;;;;;;;9.07;4.53;;;;;;;10.60;69.84;96649.13;4989088;28;20114;-78
2023/03/09 13:40:27;;;;;;;9.70;5.10;;;;;;;10.62;69.06;96653.09;4974814;28;20037;-77
2023/03/09 13:42:54;;;;;;;9.73;5.90;;;;;;;10.59;69.26;96651.03;4974341;28;20333;-77
2023/03/09 13:45:23;;;;;;;21.60;9.63;;;;;;;10.57;69.28;96664.28;4974821;28;20031;-78
2023/03/09 13:48:04;;;;;;;13.25;7.22;;;;;;;10.54;67.93;96671.25;4978528;28;20027;-76
2023/03/09 13:50:32;;;;;;;16.48;9.18;;;;;;;10.51;68.61;96680.16;4984067;28;20058;-77
2023/03/09 13:53:13;;;;;;;17.30;8.98;;;;;;;10.57;69.65;96676.06;4974201;28;20035;-78
2023/03/09 13:55:38;;;;;;;49.35;20.60;;;;;;;10.72;69.05;96691.03;4993354;28;20084;-78
2023/03/09 13:58:18;;;;;;;15.13;9.57;;;;;;;10.79;69.42;96690.47;4983049;28;20465;-78
2023/03/09 14:01:03;;;;;;;15.18;9.93;;;;;;;11.04;68.99;96693.22;4993659;28;20030;-78
2023/03/09 14:03:31;;;;;;;15.73;9.55;;;;;;;11.21;67.50;96694.16;4985137;28;20584;-78
2023/03/09 14:06:07;;;;;;;16.13;10.63;;;;;;;11.25;67.46;96704.06;4984636;28;20106;-78
2023/03/09 14:08:52;;;;;;;19.98;11.43;;;;;;;11.27;67.60;96715.50;4973746;28;20031;-77
2023/03/09 14:11:26;;;;;;;17.33;10.85;;;;;;;11.24;66.31;96713.44;4974222;28;20023;-78
2023/03/09 14:13:59;;;;;;;32.42;17.45;;;;;;;11.29;66.55;96717.94;4974073;28;20451;-77
2023/03/09 14:16:27;;;;;;;17.00;11.13;;;;;;;11.28;66.68;96724.56;4973841;28;20035;-78
2023/03/09 14:18:55;;;;;;;14.07;9.40;;;;;;;11.38;66.41;96723.28;4973996;28;20054;-77
2023/03/09 14:21:28;;;;;;;11.75;7.68;;;;;;;11.65;66.10;96721.78;4973872;28;20035;-78
2023/03/09 14:23:57;;;;;;;12.85;9.00;;;;;;;11.72;65.20;96730.22;4974405;28;20106;-78
2023/03/09 14:26:30;;;;;;;12.57;7.88;;;;;;;11.93;64.13;96725.72;4973608;28;20039;-77
2023/03/09 14:29:05;;;;;;;13.35;8.23;;;;;;;12.03;63.65;96726.06;4972727;28;20027;-78
2023/03/09 14:31:31;;;;;;;11.15;7.75;;;;;;;12.13;64.16;96721.22;4973267;28;20033;-77
2023/03/09 14:34:02;;;;;;;12.70;7.80;;;;;;;12.16;63.24;96729.56;4973531;28;20101;-78
2023/03/09 14:36:36;;;;;;;11.15;7.88;;;;;;;12.08;62.99;96740.69;4973282;28;20038;-78
2023/03/09 14:39:22;;;;;;;19.85;10.57;;;;;;;12.23;64.00;96747.41;4973452;28;20031;-77
2023/03/09 14:42:05;;;;;;;13.30;8.52;;;;;;;12.33;63.62;96752.41;4988056;28;20022;-78
2023/03/09 14:44:35;;;;;;;9.88;7.22;;;;;;;12.24;62.59;96738.00;4985598;28;20030;-78
2023/03/09 14:47:01;;;;;;;8.65;6.72;;;;;;;12.13;62.68;96735.75;4992757;28;20034;-78
2023/03/09 14:49:26;;;;;;;8.65;6.57;;;;;;;11.99;62.53;96735.31;4992862;28;20030;-77
2023/03/09 14:51:52;;;;;;;20.25;9.60;;;;;;;11.88;61.62;96735.00;4992596;28;20029;-78
2023/03/09 14:54:19;;;;;;;11.90;7.80;;;;;;;11.73;62.03;96731.84;4992725;28;20026;-78
2023/03/09 14:56:46;;;;;;;10.45;7.40;;;;;;;11.62;63.03;96731.50;4992450;28;20056;-77
2023/03/09 14:59:15;;;;;;;12.98;10.32;;;;;;;11.59;63.73;96754.16;4992752;28;20042;-78
2023/03/09 15:01:45;;;;;;;13.45;9.05;;;;;;;11.60;64.11;96741.22;4990929;28;20381;-78
2023/03/09 15:04:15;;;;;;;13.48;9.27;;;;;;;11.59;64.15;96743.19;4973094;28;20031;-80
2023/03/09 15:06:41;;;;;;;11.80;8.63;;;;;;;11.49;63.76;96746.41;4972954;28;20037;-79
2023/03/09 15:09:07;;;;;;;14.27;9.07;;;;;;;11.38;64.16;96761.72;4972323;28;20117;-79
2023/03/09 15:11:32;;;;;;;10.65;8.07;;;;;;;11.27;63.73;96764.91;4972971;28;20471;-79
2023/03/09 15:13:59;;;;;;;10.15;7.50;;;;;;;11.08;62.19;96754.50;4992141;28;20038;-79
2023/03/09 15:16:25;;;;;;;11.98;8.85;;;;;;;10.85;63.34;96773.31;4990583;28;20545;-79
2023/03/09 15:18:50;;;;;;;17.25;12.00;;;;;;;10.69;63.32;96776.72;4992168;28;20061;-79
2023/03/09 15:21:15;;;;;;;17.90;11.95;;;;;;;10.53;63.15;96773.00;4989732;28;20487;-79
2023/03/09 15:23:41;;;;;;;67.38;43.17;;;;;;;10.39;64.02;96776.81;4991747;28;20394;-79
2023/03/09 15:26:07;;;;;;;35.88;20.58;;;;;;;10.22;64.26;96780.50;4991729;28;20073;-79
2023/03/09 15:28:32;;;;;;;29.67;16.50;;;;;;;10.06;64.48;96785.78;4991816;28;20034;-79
2023/03/09 15:30:59;;;;;;;27.80;15.63;;;;;;;9.97;65.09;96785.84;4991637;28;20501;-79
2023/03/09 15:33:25;;;;;;;42.15;22.75;;;;;;;9.88;64.25;96787.06;4991552;28;20474;-79
2023/03/09 15:35:51;;;;;;;28.63;17.33;;;;;;;9.75;65.13;96797.91;4991907;28;20120;-79
2023/03/09 15:38:17;;;;;;;40.70;22.63;;;;;;;9.62;65.13;96793.47;4991892;28;20520;-79
2023/03/09 15:40:42;;;;;;;59.65;34.53;;;;;;;9.50;64.82;96795.00;4991678;28;20113;-79
2023/03/09 15:43:08;;;;;;;91.05;34.05;;;;;;;9.42;64.62;96795.03;4991320;28;20019;-80
2023/03/09 15:45:39;;;;;;;99.03;45.35;;;;;;;9.31;65.18;96800.91;4993732;28;20041;-79
2023/03/09 15:48:05;;;;;;;122.55;50.42;;;;;;;9.26;65.01;96798.34;4990867;28;20030;-79
2023/03/09 15:50:30;;;;;;;81.45;35.50;;;;;;;9.22;65.62;96800.13;4991826;28;20033;-79
2023/03/09 15:52:56;;;;;;;62.28;29.40;;;;;;;9.16;66.05;96807.72;4991706;28;20072;-80
2023/03/09 15:55:22;;;;;;;63.05;28.30;;;;;;;9.09;66.22;96813.69;4991287;28;20034;-79
2023/03/09 15:57:47;;;;;;;85.00;39.90;;;;;;;9.05;65.88;96814.66;4990071;28;20037;-79
2023/03/09 16:00:13;;;;;;;69.55;33.53;;;;;;;9.02;65.73;96823.53;4990325;28;20137;-79
2023/03/09 16:02:39;;;;;;;76.95;36.47;;;;;;;8.99;66.15;96835.09;4981034;28;20536;-80
2023/03/09 16:05:07;;;;;;;34.35;20.75;;;;;;;8.97;66.08;96845.56;4974029;28;20026;-79
2023/03/09 16:07:32;;;;;;;26.73;16.63;;;;;;;8.86;66.32;96837.69;4991235;28;20026;-79
2023/03/09 16:09:57;;;;;;;39.33;22.70;;;;;;;8.76;66.39;96843.53;4976092;28;20026;-79
2023/03/09 16:12:23;;;;;;;33.20;20.40;;;;;;;8.70;66.64;96834.69;4970833;28;20023;-78
2023/03/09 16:14:48;;;;;;;30.98;20.30;;;;;;;8.66;66.58;96847.38;4971367;28;20648;-79